createdAt,value
2022-09-23T00:02:27.785Z,9.63
2022-09-23T00:04:59.024Z,10.02
2022-09-23T00:07:33.417Z,9.77
2022-09-23T00:10:04.797Z,9.98
2022-09-23T00:12:36.892Z,7.83
2022-09-23T00:15:12.262Z,11.50
2022-09-23T00:17:43.784Z,9.40
2022-09-23T00:20:18.083Z,9.32
2022-09-23T00:22:54.454Z,8.53
2022-09-23T00:25:25.777Z,10.40
2022-09-23T00:27:57.341Z,10.25
2022-09-23T00:30:29.944Z,9.60
2022-09-23T00:33:00.861Z,8.85
2022-09-23T00:35:31.777Z,8.63
2022-09-23T00:38:06.402Z,9.73
2022-09-23T00:40:37.914Z,11.30
2022-09-23T00:43:08.926Z,10.65
2022-09-23T00:45:42.870Z,11.88
2022-09-23T00:48:15.321Z,10.13
2022-09-23T00:50:48.054Z,9.03
2022-09-23T00:53:22.890Z,8.43
2022-09-23T00:55:55.476Z,8.88
2022-09-23T00:58:28.376Z,8.07
2022-09-23T01:01:01.711Z,8.95
2022-09-23T01:03:32.733Z,10.85
2022-09-23T01:06:04.863Z,9.80
2022-09-23T01:08:41.396Z,10.30
2022-09-23T01:11:18.653Z,8.93
2022-09-23T01:13:55.165Z,8.80
2022-09-23T01:16:30.296Z,9.00
2022-09-23T01:19:08.607Z,8.80
2022-09-23T01:21:45.441Z,11.35
2022-09-23T01:24:26.380Z,9.25
2022-09-23T01:27:03.970Z,10.55
2022-09-23T01:29:59.328Z,8.70
2022-09-23T01:32:42.619Z,8.63
2022-09-23T01:35:17.311Z,8.20
2022-09-23T01:37:50.988Z,10.27
2022-09-23T01:40:28.896Z,9.47
2022-09-23T01:43:00.955Z,8.57
2022-09-23T01:45:34.260Z,7.77
2022-09-23T01:48:14.081Z,6.40
2022-09-23T01:51:01.441Z,7.70
2022-09-23T01:53:38.058Z,6.70
2022-09-23T01:56:13.944Z,8.20
2022-09-23T01:58:49.476Z,6.67
2022-09-23T02:01:24.173Z,8.40
2022-09-23T02:04:01.160Z,8.40
2022-09-23T02:06:34.848Z,8.23
2022-09-23T02:09:12.153Z,6.15
2022-09-23T02:11:45.510Z,6.60
2022-09-23T02:14:19.922Z,6.90
2022-09-23T02:16:51.604Z,5.60
2022-09-23T02:19:27.275Z,7.72
2022-09-23T02:22:02.593Z,8.07
2022-09-23T02:24:34.884Z,6.00
2022-09-23T02:27:10.766Z,6.00
2022-09-23T02:29:46.056Z,4.90
2022-09-23T02:32:19.210Z,6.35
2022-09-23T02:34:58.761Z,5.60
2022-09-23T02:37:32.202Z,5.65
2022-09-23T02:40:10.241Z,5.45
2022-09-23T02:42:45.807Z,5.43
2022-09-23T02:45:16.226Z,4.70
2022-09-23T02:47:49.808Z,4.57
2022-09-23T02:50:23.480Z,6.25
2022-09-23T02:52:55.778Z,5.17
2022-09-23T02:55:30.534Z,5.72
2022-09-23T02:58:02.467Z,5.45
2022-09-23T03:00:39.941Z,5.75
2022-09-23T03:03:20.451Z,7.85
2022-09-23T03:05:57.348Z,6.72
2022-09-23T03:08:36.927Z,8.43
2022-09-23T03:11:11.443Z,8.13
2022-09-23T03:14:05.298Z,7.93
2022-09-23T03:16:40.131Z,5.85
2022-09-23T03:19:20.946Z,6.30
2022-09-23T03:22:01.049Z,6.18
2022-09-23T03:24:35.091Z,6.15
2022-09-23T03:27:07.396Z,7.20
2022-09-23T03:29:38.837Z,8.95
2022-09-23T03:32:10.038Z,7.65
2022-09-23T03:34:40.812Z,8.25
2022-09-23T03:37:18.212Z,6.45
2022-09-23T03:39:51.916Z,6.55
2022-09-23T03:42:24.004Z,6.00
2022-09-23T03:44:59.156Z,7.10
2022-09-23T03:47:31.366Z,7.43
2022-09-23T03:50:02.833Z,6.10
2022-09-23T03:52:39.993Z,5.57
2022-09-23T03:55:14.145Z,6.28
2022-09-23T03:57:46.004Z,6.50
2022-09-23T04:00:19.879Z,5.75
2022-09-23T04:02:53.804Z,4.90
2022-09-23T04:05:24.750Z,5.68
2022-09-23T04:07:58.545Z,5.28
2022-09-23T04:10:29.807Z,6.43
2022-09-23T04:13:01.785Z,6.93
2022-09-23T04:15:32.837Z,6.70
2022-09-23T04:18:03.768Z,6.10
2022-09-23T04:20:34.875Z,6.23
2022-09-23T04:23:09.401Z,6.65
2022-09-23T04:25:48.042Z,6.45
2022-09-23T04:28:21.777Z,7.80
2022-09-23T04:30:52.787Z,7.15
2022-09-23T04:33:24.049Z,7.20
2022-09-23T04:35:58.638Z,6.57
2022-09-23T04:38:32.610Z,5.95
2022-09-23T04:41:03.929Z,5.15
2022-09-23T04:43:37.781Z,6.15
2022-09-23T04:46:11.373Z,7.67
2022-09-23T04:48:43.205Z,9.10
2022-09-23T04:51:15.951Z,11.05
2022-09-23T04:53:54.090Z,7.28
2022-09-23T04:56:26.838Z,5.40
2022-09-23T04:58:58.947Z,5.90
2022-09-23T05:01:34.690Z,8.20
2022-09-23T05:04:07.681Z,8.15
2022-09-23T05:06:39.681Z,11.20
2022-09-23T05:09:15.959Z,9.30
2022-09-23T05:11:47.319Z,10.30
2022-09-23T05:14:19.270Z,9.32
2022-09-23T05:16:53.202Z,9.40
2022-09-23T05:19:25.322Z,10.32
2022-09-23T05:21:57.273Z,9.10
2022-09-23T05:24:31.706Z,7.00
2022-09-23T05:27:08.625Z,8.55
2022-09-23T05:29:41.337Z,9.40
2022-09-23T05:32:14.779Z,10.20
2022-09-23T05:34:46.505Z,8.15
2022-09-23T05:37:19.801Z,8.30
2022-09-23T05:39:53.750Z,9.55
2022-09-23T05:42:25.694Z,8.68
2022-09-23T05:44:57.319Z,8.57
2022-09-23T05:47:31.150Z,7.50
2022-09-23T05:50:02.561Z,7.80
2022-09-23T05:52:35.455Z,9.50
2022-09-23T05:55:11.927Z,36.53
2022-09-23T05:57:43.320Z,14.75
2022-09-23T06:00:16.761Z,10.40
2022-09-23T06:02:50.800Z,7.90
2022-09-23T06:05:23.053Z,8.50
2022-09-23T06:07:55.168Z,7.33
2022-09-23T06:10:31.726Z,8.73
2022-09-23T06:13:03.170Z,8.20
2022-09-23T06:15:37.824Z,7.55
2022-09-23T06:18:09.841Z,9.00
2022-09-23T06:20:41.272Z,8.60
2022-09-23T06:23:14.260Z,9.67
2022-09-23T06:25:49.382Z,9.77
2022-09-23T06:28:21.382Z,8.60
2022-09-23T06:30:53.532Z,9.23
2022-09-23T06:33:35.241Z,9.00
2022-09-23T06:36:10.024Z,9.82
2022-09-23T06:38:44.847Z,8.80
2022-09-23T06:41:22.538Z,9.32
2022-09-23T06:43:55.651Z,9.23
2022-09-23T06:46:27.059Z,8.20
2022-09-23T06:48:58.285Z,8.85
2022-09-23T06:51:32.042Z,8.07
2022-09-23T06:54:05.202Z,8.20
2022-09-23T06:56:40.179Z,9.07
2022-09-23T06:59:17.381Z,9.43
2022-09-23T07:01:51.175Z,9.68
2022-09-23T07:04:29.235Z,9.75
2022-09-23T07:07:01.667Z,8.95
2022-09-23T07:09:33.116Z,8.93
2022-09-23T07:12:10.494Z,8.75
2022-09-23T07:14:41.947Z,8.57
2022-09-23T07:17:14.950Z,8.65
2022-09-23T07:19:46.387Z,8.68
2022-09-23T07:22:18.652Z,8.85
2022-09-23T07:24:52.090Z,9.15
2022-09-23T07:27:29.778Z,8.53
2022-09-23T07:30:04.018Z,8.15
2022-09-23T07:32:45.359Z,8.65
2022-09-23T07:35:19.140Z,8.10
2022-09-23T07:37:50.987Z,9.30
2022-09-23T07:40:22.321Z,8.20
2022-09-23T07:42:56.985Z,9.50
2022-09-23T07:45:32.288Z,9.05
2022-09-23T07:48:06.650Z,9.20
2022-09-23T07:50:37.895Z,9.50
2022-09-23T07:53:12.682Z,9.27
2022-09-23T07:55:43.882Z,10.30
2022-09-23T07:58:19.105Z,9.90
2022-09-23T08:00:53.500Z,9.68
2022-09-23T08:03:26.772Z,10.30
2022-09-23T08:05:58.259Z,11.20
2022-09-23T08:08:30.896Z,11.00
2022-09-23T08:11:05.868Z,10.95
2022-09-23T08:13:40.526Z,12.43
2022-09-23T08:16:12.452Z,12.43
2022-09-23T08:18:47.271Z,12.48
2022-09-23T08:21:21.854Z,13.05
2022-09-23T08:23:53.077Z,13.30
2022-09-23T08:26:24.673Z,14.20
2022-09-23T08:28:58.730Z,15.15
2022-09-23T08:31:31.334Z,16.15
2022-09-23T08:34:03.324Z,15.25
2022-09-23T08:36:35.426Z,18.83
2022-09-23T08:39:08.023Z,16.30
2022-09-23T08:41:43.921Z,17.00
2022-09-23T08:44:20.491Z,18.67
2022-09-23T08:46:54.301Z,18.00
2022-09-23T08:49:28.807Z,16.60
2022-09-23T08:52:00.284Z,14.40
2022-09-23T08:54:31.966Z,14.25
2022-09-23T08:57:03.522Z,13.82
2022-09-23T08:59:39.255Z,14.80
2022-09-23T09:02:16.957Z,13.77
2022-09-23T09:04:48.850Z,10.55
2022-09-23T09:07:36.104Z,10.18
2022-09-23T09:10:14.781Z,10.02
2022-09-23T09:12:47.422Z,9.40
2022-09-23T09:15:24.791Z,9.60
2022-09-23T09:18:02.565Z,8.45
2022-09-23T09:20:40.101Z,7.27
2022-09-23T09:23:17.086Z,6.75
2022-09-23T09:25:49.666Z,7.22
2022-09-23T09:28:31.197Z,7.35
2022-09-23T09:31:12.346Z,7.95
2022-09-23T09:33:47.992Z,7.65
2022-09-23T09:36:25.828Z,7.45
2022-09-23T09:38:59.775Z,5.60
2022-09-23T09:41:33.036Z,5.53
2022-09-23T09:44:05.126Z,4.30
2022-09-23T09:46:49.989Z,4.15
2022-09-23T09:49:26.437Z,4.90
2022-09-23T09:52:14.627Z,4.00
2022-09-23T09:54:46.120Z,4.10
2022-09-23T09:57:36.131Z,4.65
2022-09-23T10:00:37.214Z,3.83
2022-09-23T10:03:27.480Z,3.88
2022-09-23T10:06:00.008Z,3.40
2022-09-23T10:08:35.214Z,3.25
2022-09-23T10:11:08.325Z,3.83
2022-09-23T10:13:39.826Z,3.60
2022-09-23T10:16:13.979Z,4.50
2022-09-23T10:18:57.093Z,4.30
2022-09-23T10:21:36.469Z,3.10
2022-09-23T10:24:09.126Z,2.28
2022-09-23T10:26:46.486Z,2.17
2022-09-23T10:29:26.186Z,2.60
2022-09-23T10:32:20.012Z,2.10
2022-09-23T10:34:55.139Z,1.25
2022-09-23T10:37:31.854Z,2.28
2022-09-23T10:40:15.372Z,1.30
2022-09-23T10:43:08.451Z,1.63
2022-09-23T10:45:54.766Z,1.70
2022-09-23T10:48:34.214Z,1.30
2022-09-23T10:51:14.636Z,1.02
2022-09-23T10:53:52.285Z,0.80
2022-09-23T10:56:32.166Z,1.38
2022-09-23T10:59:15.063Z,1.88
2022-09-23T11:01:55.145Z,1.30
2022-09-23T11:04:37.691Z,1.30
2022-09-23T11:07:22.315Z,0.85
2022-09-23T11:10:45.087Z,1.20
2022-09-23T11:13:23.562Z,0.75
2022-09-23T11:16:00.084Z,1.00
2022-09-23T11:18:48.515Z,1.00
2022-09-23T11:21:42.777Z,0.77
2022-09-23T11:24:37.309Z,1.10
2022-09-23T11:27:14.629Z,0.95
2022-09-23T11:30:09.347Z,0.70
2022-09-23T11:32:54.554Z,0.70
2022-09-23T11:35:26.392Z,0.70
2022-09-23T11:38:00.804Z,0.60
2022-09-23T11:40:39.881Z,0.60
2022-09-23T11:43:22.096Z,0.90
2022-09-23T11:45:58.876Z,0.88
2022-09-23T11:48:35.615Z,0.80
2022-09-23T11:51:09.921Z,0.73
2022-09-23T11:53:43.687Z,0.70
2022-09-23T11:56:31.643Z,0.80
2022-09-23T11:59:09.649Z,0.90
2022-09-23T12:01:45.495Z,0.80
2022-09-23T12:04:23.440Z,0.60
2022-09-23T12:06:57.501Z,0.50
2022-09-23T12:09:56.780Z,0.65
2022-09-23T12:12:32.664Z,0.63
2022-09-23T12:15:07.898Z,0.43
2022-09-23T12:17:54.668Z,0.60
2022-09-23T12:20:35.134Z,0.60
2022-09-23T12:23:13.406Z,0.40
2022-09-23T12:25:47.399Z,0.40
2022-09-23T12:28:24.594Z,0.80
2022-09-23T12:30:58.021Z,0.55
2022-09-23T12:33:33.346Z,0.63
2022-09-23T12:36:09.567Z,0.55
2022-09-23T12:38:42.977Z,0.45
2022-09-23T12:41:27.278Z,0.40
2022-09-23T12:44:03.312Z,0.60
2022-09-23T12:46:35.406Z,0.70
2022-09-23T12:49:08.534Z,0.50
2022-09-23T12:51:42.531Z,0.50
2022-09-23T12:54:27.308Z,0.60
2022-09-23T12:57:06.475Z,0.60
2022-09-23T13:00:00.629Z,0.55
2022-09-23T13:02:38.224Z,0.60
2022-09-23T13:05:46.750Z,0.45
2022-09-23T13:08:20.583Z,0.65
2022-09-23T13:10:52.859Z,1.05
2022-09-23T13:13:27.472Z,0.50
2022-09-23T13:16:13.958Z,0.52
2022-09-23T13:18:54.393Z,0.80
2022-09-23T13:21:42.703Z,0.55
2022-09-23T13:24:21.733Z,0.70
2022-09-23T13:26:54.347Z,0.60
2022-09-23T13:29:29.414Z,1.60
2022-09-23T13:32:05.772Z,0.60
2022-09-23T13:34:38.706Z,0.60
2022-09-23T13:37:20.190Z,0.37
2022-09-23T13:39:56.316Z,0.50
2022-09-23T13:42:30.313Z,0.40
2022-09-23T13:45:04.333Z,0.50
2022-09-23T13:47:38.918Z,0.70
2022-09-23T13:50:17.807Z,0.60
2022-09-23T13:52:49.285Z,0.50
2022-09-23T13:55:28.652Z,0.60
2022-09-23T13:58:05.299Z,0.47
2022-09-23T14:00:39.071Z,0.50
2022-09-23T14:03:24.712Z,0.55
2022-09-23T14:05:58.555Z,0.50
2022-09-23T14:08:30.490Z,0.40
2022-09-23T14:11:06.418Z,0.50
2022-09-23T14:16:15.359Z,0.40
2022-09-23T14:18:48.101Z,0.53
2022-09-23T14:21:35.333Z,0.60
2022-09-23T14:24:18.871Z,0.70
2022-09-23T14:26:53.433Z,0.60
2022-09-23T14:29:27.294Z,0.60
2022-09-23T14:32:03.244Z,0.60
2022-09-23T14:37:36.211Z,0.90
2022-09-23T14:40:09.539Z,0.55
2022-09-23T14:42:41.942Z,0.40
2022-09-23T14:45:15.942Z,0.40
2022-09-23T14:47:49.727Z,0.60
2022-09-23T14:50:35.403Z,0.77
2022-09-23T14:53:25.205Z,0.60
2022-09-23T14:55:58.723Z,0.65
2022-09-23T14:58:31.167Z,0.63
2022-09-23T15:01:05.535Z,0.60
2022-09-23T15:03:37.864Z,0.57
2022-09-23T15:06:09.592Z,0.85
2022-09-23T15:08:43.939Z,0.52
2022-09-23T15:11:15.060Z,0.63
2022-09-23T15:13:51.222Z,0.57
2022-09-23T15:16:27.538Z,0.50
2022-09-23T15:19:01.019Z,0.50
2022-09-23T15:21:41.379Z,0.40
2022-09-23T15:24:43.192Z,0.40
2022-09-23T15:27:33.796Z,0.60
2022-09-23T15:30:14.689Z,0.57
2022-09-23T15:32:46.398Z,0.90
2022-09-23T15:35:19.861Z,0.43
2022-09-23T15:37:54.187Z,0.60
2022-09-23T15:40:30.197Z,0.70
2022-09-23T15:43:01.872Z,2.35
2022-09-23T15:45:36.298Z,1.63
2022-09-23T15:48:11.203Z,2.30
2022-09-23T15:50:45.786Z,6.45
2022-09-23T15:53:18.301Z,3.20
2022-09-23T15:55:54.911Z,8.98
2022-09-23T15:58:26.514Z,5.03
2022-09-23T16:00:59.589Z,3.03
2022-09-23T16:03:31.293Z,3.45
2022-09-23T16:06:06.364Z,1.63
2022-09-23T16:08:41.300Z,2.00
2022-09-23T16:11:18.657Z,4.15
2022-09-23T16:13:50.605Z,6.97
2022-09-23T16:16:24.141Z,8.18
2022-09-23T16:18:55.358Z,6.40
2022-09-23T16:21:28.825Z,5.40
2022-09-23T16:24:00.426Z,3.63
2022-09-23T16:26:35.725Z,3.50
2022-09-23T16:29:08.402Z,4.07
2022-09-23T16:31:40.546Z,2.80
2022-09-23T16:34:12.209Z,5.15
2022-09-23T16:36:44.436Z,7.85
2022-09-23T16:39:16.611Z,10.15
2022-09-23T16:41:50.876Z,6.65
2022-09-23T16:44:23.054Z,6.70
2022-09-23T16:46:54.408Z,8.00
2022-09-23T16:49:27.771Z,8.20
2022-09-23T16:52:01.850Z,16.02
2022-09-23T16:54:32.960Z,14.05
2022-09-23T16:57:07.098Z,9.80
2022-09-23T16:59:53.408Z,8.70
2022-09-23T17:02:37.451Z,8.65
2022-09-23T17:05:10.997Z,8.15
2022-09-23T17:07:42.058Z,6.75
2022-09-23T17:10:13.301Z,6.65
2022-09-23T17:12:47.728Z,5.57
2022-09-23T17:15:19.166Z,5.47
2022-09-23T17:17:50.042Z,4.50
2022-09-23T17:20:21.010Z,3.08
2022-09-23T17:22:51.989Z,2.95
2022-09-23T17:25:23.094Z,3.50
2022-09-23T17:27:56.111Z,5.00
2022-09-23T17:30:27.156Z,4.15
2022-09-23T17:32:58.151Z,4.07
2022-09-23T17:35:29.053Z,6.78
2022-09-23T17:38:00.148Z,10.20
2022-09-23T17:40:35.907Z,4.53
2022-09-23T17:43:12.821Z,5.60
2022-09-23T17:45:45.019Z,5.82
2022-09-23T17:48:17.325Z,4.45
2022-09-23T17:50:58.656Z,5.32
2022-09-23T17:53:31.553Z,5.57
2022-09-23T17:56:04.327Z,6.95
2022-09-23T17:58:39.350Z,7.35
2022-09-23T18:01:13.403Z,8.00
2022-09-23T18:03:45.926Z,8.10
2022-09-23T18:06:18.514Z,8.43
2022-09-23T18:08:51.387Z,7.95
2022-09-23T18:11:24.605Z,7.43
2022-09-23T18:13:59.776Z,6.65
2022-09-23T18:16:32.133Z,6.90
2022-09-23T18:19:06.373Z,6.53
2022-09-23T18:21:40.327Z,6.13
2022-09-23T18:27:04.700Z,7.67
2022-09-23T18:29:41.255Z,8.50
2022-09-23T18:32:15.286Z,7.97
2022-09-23T18:34:49.723Z,11.70
2022-09-23T18:37:21.139Z,11.57
2022-09-23T18:39:52.476Z,10.13
2022-09-23T18:42:24.197Z,11.48
2022-09-23T18:44:58.639Z,11.30
2022-09-23T18:47:43.352Z,12.70
2022-09-23T18:50:27.638Z,13.27
2022-09-23T18:53:01.235Z,14.30
2022-09-23T18:55:37.434Z,13.43
2022-09-23T18:58:10.606Z,14.60
2022-09-23T19:00:44.806Z,14.27
2022-09-23T19:03:16.178Z,14.65
2022-09-23T19:05:50.242Z,14.27
2022-09-23T19:08:21.085Z,13.45
2022-09-23T19:10:58.700Z,15.70
2022-09-23T19:13:30.534Z,14.45
2022-09-23T19:16:08.140Z,14.80
2022-09-23T19:18:42.745Z,14.85
2022-09-23T19:21:15.730Z,17.20
2022-09-23T19:23:49.999Z,16.15
2022-09-23T19:26:22.012Z,15.43
2022-09-23T19:28:53.287Z,15.52
2022-09-23T19:31:29.575Z,16.95
2022-09-23T19:34:02.992Z,17.70
2022-09-23T19:36:35.354Z,17.90
2022-09-23T19:39:10.339Z,16.75
2022-09-23T19:41:44.314Z,15.65
2022-09-23T19:44:16.857Z,14.68
2022-09-23T19:46:55.996Z,15.00
2022-09-23T19:49:28.949Z,15.80
2022-09-23T19:52:00.634Z,16.02
2022-09-23T19:54:32.192Z,13.38
2022-09-23T19:57:03.458Z,14.07
2022-09-23T19:59:38.067Z,12.90
2022-09-23T20:02:12.357Z,13.90
2022-09-23T20:04:47.326Z,14.60
2022-09-23T20:07:20.188Z,14.32
2022-09-23T20:09:51.151Z,14.90
2022-09-23T20:12:25.361Z,14.35
2022-09-23T20:14:57.114Z,14.25
2022-09-23T20:17:32.107Z,13.40
2022-09-23T20:20:06.406Z,12.70
2022-09-23T20:22:38.377Z,12.23
2022-09-23T20:25:13.810Z,13.25
2022-09-23T20:27:42.474Z,12.53
2022-09-23T20:30:15.595Z,13.05
2022-09-23T20:32:50.845Z,12.80
2022-09-23T20:35:22.276Z,13.30
2022-09-23T20:37:56.459Z,14.25
2022-09-23T20:40:28.385Z,12.95
2022-09-23T20:43:04.282Z,13.15
2022-09-23T20:45:38.197Z,14.53
2022-09-23T20:48:14.763Z,15.35
2022-09-23T20:50:47.221Z,16.92
2022-09-23T20:53:22.490Z,14.55
2022-09-23T20:55:54.320Z,14.63
2022-09-23T20:58:29.371Z,15.07
2022-09-23T21:01:04.979Z,14.60
2022-09-23T21:03:38.802Z,17.83
2022-09-23T21:06:11.092Z,14.10
2022-09-23T21:08:42.363Z,13.40
2022-09-23T21:11:15.137Z,15.15
2022-09-23T21:13:48.607Z,15.07
2022-09-23T21:16:21.759Z,16.30
2022-09-23T21:18:55.744Z,16.30
2022-09-23T21:21:27.103Z,18.05
2022-09-23T21:24:11.740Z,16.35
2022-09-23T21:26:50.640Z,16.67
2022-09-23T21:29:22.100Z,15.50
2022-09-23T21:31:53.238Z,17.15
2022-09-23T21:34:31.331Z,16.17
2022-09-23T21:37:08.620Z,15.48
2022-09-23T21:39:40.105Z,17.85
2022-09-23T21:42:14.139Z,16.83
2022-09-23T21:44:45.110Z,15.07
2022-09-23T21:47:16.178Z,17.02
2022-09-23T21:49:51.009Z,16.83
2022-09-23T21:52:25.092Z,16.02
2022-09-23T21:54:57.192Z,15.07
2022-09-23T21:57:28.425Z,15.00
2022-09-23T22:00:00.057Z,14.30
2022-09-23T22:02:34.430Z,14.85
2022-09-23T22:05:11.419Z,13.70
2022-09-23T22:07:43.173Z,14.88
2022-09-23T22:10:17.135Z,14.18
2022-09-23T22:12:50.903Z,15.40
2022-09-23T22:15:22.151Z,15.40
2022-09-23T22:17:53.238Z,15.18
2022-09-23T22:20:27.048Z,16.05
2022-09-23T22:22:58.131Z,14.90
2022-09-23T22:25:29.128Z,15.20
2022-09-23T22:28:12.282Z,15.38
2022-09-23T22:30:56.577Z,16.20
2022-09-23T22:33:28.054Z,14.40
2022-09-23T22:36:06.889Z,14.00
2022-09-23T22:38:38.757Z,13.68
2022-09-23T22:41:10.046Z,15.02
2022-09-23T22:43:41.132Z,14.15
2022-09-23T22:46:15.524Z,14.50
2022-09-23T22:48:47.147Z,13.80
2022-09-23T22:51:21.431Z,15.50
2022-09-23T22:53:53.091Z,13.00
2022-09-23T22:56:24.169Z,15.00
2022-09-23T22:58:56.297Z,14.30
2022-09-23T23:01:27.509Z,14.20
2022-09-23T23:04:01.712Z,12.00
2022-09-23T23:06:38.791Z,11.87
2022-09-23T23:09:11.856Z,12.10
2022-09-23T23:11:43.177Z,12.55
2022-09-23T23:14:14.474Z,14.25
2022-09-23T23:16:46.344Z,12.18
2022-09-23T23:19:20.064Z,12.45
2022-09-23T23:21:53.858Z,12.32
2022-09-23T23:24:26.040Z,12.18
2022-09-23T23:26:57.091Z,12.55
2022-09-23T23:29:31.042Z,12.45
2022-09-23T23:32:02.096Z,11.65
2022-09-23T23:34:33.188Z,11.68
2022-09-23T23:37:06.738Z,11.05
2022-09-23T23:39:39.162Z,11.70
2022-09-23T23:42:10.090Z,10.90
2022-09-23T23:44:41.057Z,11.80
2022-09-23T23:47:12.533Z,10.32
2022-09-23T23:49:44.061Z,10.85
2022-09-23T23:52:17.699Z,9.93
2022-09-23T23:54:49.209Z,9.85
2022-09-23T23:57:20.065Z,9.65
2022-09-23T23:59:51.084Z,9.67
